sensor_id;sensor_type;location;lat;lon;timestamp;pressure;altitude;pressure_sealevel;temperature;humidity
21240;BME280;10778;48.962;9.018;2023-06-05T00:01:07;99141.56;;;14.29;60.18
21240;BME280;10778;48.962;9.018;2023-06-05T00:03:35;99146.19;;;14.27;62.12
21240;BME280;10778;48.962;9.018;2023-06-05T00:06:03;99133.91;;;14.18;61.88
21240;BME280;10778;48.962;9.018;2023-06-05T00:08:29;99136.56;;;14.18;62.25
21240;BME280;10778;48.962;9.018;2023-06-05T00:10:55;99139.03;;;14.11;60.39
21240;BME280;10778;48.962;9.018;2023-06-05T00:13:21;99139.03;;;14.11;60.29
21240;BME280;10778;48.962;9.018;2023-06-05T00:15:47;99141.19;;;14.16;60.08
21240;BME280;10778;48.962;9.018;2023-06-05T00:18:13;99141.66;;;14.11;61.52
21240;BME280;10778;48.962;9.018;2023-06-05T00:20:40;99144.44;;;14.01;62.04
21240;BME280;10778;48.962;9.018;2023-06-05T00:23:06;99142.84;;;14.08;59.82
21240;BME280;10778;48.962;9.018;2023-06-05T00:25:32;99141.50;;;14.04;60.19
21240;BME280;10778;48.962;9.018;2023-06-05T00:27:58;99144.69;;;14.16;60.40
21240;BME280;10778;48.962;9.018;2023-06-05T00:30:24;99143.16;;;14.05;59.79
21240;BME280;10778;48.962;9.018;2023-06-05T00:32:50;99137.34;;;14.02;61.06
21240;BME280;10778;48.962;9.018;2023-06-05T00:35:29;99138.81;;;13.96;61.13
21240;BME280;10778;48.962;9.018;2023-06-05T00:37:55;99143.44;;;14.02;60.74
21240;BME280;10778;48.962;9.018;2023-06-05T00:40:21;99136.84;;;13.98;60.56
21240;BME280;10778;48.962;9.018;2023-06-05T00:42:47;99138.16;;;14.02;60.18
21240;BME280;10778;48.962;9.018;2023-06-05T00:45:13;99137.19;;;14.03;60.12
21240;BME280;10778;48.962;9.018;2023-06-05T00:47:40;99139.34;;;14.00;59.86
21240;BME280;10778;48.962;9.018;2023-06-05T00:50:07;99132.38;;;13.99;59.89
21240;BME280;10778;48.962;9.018;2023-06-05T00:52:34;99136.69;;;14.00;59.61
21240;BME280;10778;48.962;9.018;2023-06-05T00:55:01;99137.47;;;13.92;60.10
21240;BME280;10778;48.962;9.018;2023-06-05T00:57:27;99138.63;;;13.89;60.21
21240;BME280;10778;48.962;9.018;2023-06-05T00:59:54;99142.59;;;13.93;59.98
21240;BME280;10778;48.962;9.018;2023-06-05T01:02:20;99137.69;;;13.99;60.73
21240;BME280;10778;48.962;9.018;2023-06-05T01:04:48;99139.94;;;13.93;60.77
21240;BME280;10778;48.962;9.018;2023-06-05T01:07:15;99141.13;;;13.91;62.05
21240;BME280;10778;48.962;9.018;2023-06-05T01:09:42;99143.09;;;13.89;61.01
21240;BME280;10778;48.962;9.018;2023-06-05T01:14:40;99144.16;;;13.78;64.41
21240;BME280;10778;48.962;9.018;2023-06-05T01:17:12;99142.91;;;13.56;67.81
21240;BME280;10778;48.962;9.018;2023-06-05T01:19:40;99142.47;;;13.42;67.94
21240;BME280;10778;48.962;9.018;2023-06-05T01:22:06;99146.34;;;13.30;68.49
21240;BME280;10778;48.962;9.018;2023-06-05T01:24:32;99147.44;;;13.19;68.79
21240;BME280;10778;48.962;9.018;2023-06-05T01:27:09;99149.03;;;13.12;68.36
21240;BME280;10778;48.962;9.018;2023-06-05T01:35:14;99149.66;;;12.87;69.99
21240;BME280;10778;48.962;9.018;2023-06-05T01:37:45;99154.09;;;12.87;69.58
21240;BME280;10778;48.962;9.018;2023-06-05T01:40:16;99152.81;;;12.73;70.30
21240;BME280;10778;48.962;9.018;2023-06-05T01:42:43;99152.34;;;12.59;70.75
21240;BME280;10778;48.962;9.018;2023-06-05T01:45:10;99151.69;;;12.57;71.79
21240;BME280;10778;48.962;9.018;2023-06-05T01:47:38;99149.19;;;12.56;71.35
21240;BME280;10778;48.962;9.018;2023-06-05T01:50:05;99145.38;;;12.40;72.39
21240;BME280;10778;48.962;9.018;2023-06-05T01:52:32;99152.78;;;12.36;72.45
21240;BME280;10778;48.962;9.018;2023-06-05T01:54:59;99147.59;;;12.27;73.59
21240;BME280;10778;48.962;9.018;2023-06-05T01:57:27;99153.72;;;12.17;73.37
21240;BME280;10778;48.962;9.018;2023-06-05T01:59:54;99155.00;;;12.13;74.55
21240;BME280;10778;48.962;9.018;2023-06-05T02:02:20;99149.03;;;12.11;73.42
21240;BME280;10778;48.962;9.018;2023-06-05T02:04:48;99147.38;;;12.10;73.14
21240;BME280;10778;48.962;9.018;2023-06-05T02:07:14;99145.97;;;12.16;72.53
21240;BME280;10778;48.962;9.018;2023-06-05T02:09:41;99139.56;;;12.18;72.83
21240;BME280;10778;48.962;9.018;2023-06-05T02:12:08;99140.69;;;12.16;73.52
21240;BME280;10778;48.962;9.018;2023-06-05T02:14:34;99141.56;;;12.06;75.21
21240;BME280;10778;48.962;9.018;2023-06-05T02:17:03;99145.47;;;12.02;75.32
21240;BME280;10778;48.962;9.018;2023-06-05T02:19:33;99141.63;;;11.87;75.57
21240;BME280;10778;48.962;9.018;2023-06-05T02:21:59;99141.41;;;11.70;77.50
21240;BME280;10778;48.962;9.018;2023-06-05T02:24:25;99147.13;;;11.65;77.89
21240;BME280;10778;48.962;9.018;2023-06-05T02:26:53;99143.66;;;11.55;78.12
21240;BME280;10778;48.962;9.018;2023-06-05T02:29:19;99151.88;;;11.42;79.08
21240;BME280;10778;48.962;9.018;2023-06-05T02:31:45;99141.41;;;11.22;80.43
21240;BME280;10778;48.962;9.018;2023-06-05T02:34:11;99142.94;;;11.15;79.52
21240;BME280;10778;48.962;9.018;2023-06-05T02:36:37;99141.41;;;11.13;80.61
21240;BME280;10778;48.962;9.018;2023-06-05T02:39:04;99150.16;;;10.93;82.01
21240;BME280;10778;48.962;9.018;2023-06-05T02:41:30;99150.16;;;10.74;82.86
21240;BME280;10778;48.962;9.018;2023-06-05T02:43:56;99157.50;;;10.70;82.78
21240;BME280;10778;48.962;9.018;2023-06-05T02:46:23;99155.69;;;10.61;83.21
21240;BME280;10778;48.962;9.018;2023-06-05T02:48:52;99158.59;;;10.67;83.83
21240;BME280;10778;48.962;9.018;2023-06-05T02:51:18;99154.59;;;10.63;83.65
21240;BME280;10778;48.962;9.018;2023-06-05T02:53:46;99160.38;;;10.57;83.99
21240;BME280;10778;48.962;9.018;2023-06-05T02:56:14;99160.66;;;10.64;83.89
21240;BME280;10778;48.962;9.018;2023-06-05T02:58:40;99156.94;;;10.66;83.22
21240;BME280;10778;48.962;9.018;2023-06-05T03:01:09;99154.88;;;10.70;83.71
21240;BME280;10778;48.962;9.018;2023-06-05T03:03:41;99160.09;;;10.60;84.85
21240;BME280;10778;48.962;9.018;2023-06-05T03:06:08;99152.34;;;10.49;84.75
21240;BME280;10778;48.962;9.018;2023-06-05T03:08:39;99152.44;;;10.37;85.36
21240;BME280;10778;48.962;9.018;2023-06-05T03:11:10;99148.00;;;10.38;85.49
21240;BME280;10778;48.962;9.018;2023-06-05T03:13:36;99154.41;;;10.45;84.92
21240;BME280;10778;48.962;9.018;2023-06-05T03:16:03;99154.28;;;10.47;85.10
21240;BME280;10778;48.962;9.018;2023-06-05T03:18:32;99154.00;;;10.50;85.36
21240;BME280;10778;48.962;9.018;2023-06-05T03:20:59;99152.63;;;10.46;85.43
21240;BME280;10778;48.962;9.018;2023-06-05T03:23:27;99151.75;;;10.35;86.43
21240;BME280;10778;48.962;9.018;2023-06-05T03:25:55;99151.00;;;10.14;87.33
21240;BME280;10778;48.962;9.018;2023-06-05T03:28:23;99157.22;;;10.13;87.35
21240;BME280;10778;48.962;9.018;2023-06-05T03:30:50;99156.66;;;10.09;87.85
21240;BME280;10778;48.962;9.018;2023-06-05T03:33:18;99159.56;;;10.06;88.18
21240;BME280;10778;48.962;9.018;2023-06-05T03:35:45;99158.59;;;10.07;88.55
21240;BME280;10778;48.962;9.018;2023-06-05T03:38:12;99161.66;;;10.22;88.40
21240;BME280;10778;48.962;9.018;2023-06-05T03:40:39;99166.81;;;10.33;87.90
21240;BME280;10778;48.962;9.018;2023-06-05T03:43:07;99163.09;;;10.36;87.39
21240;BME280;10778;48.962;9.018;2023-06-05T03:45:36;99166.03;;;10.43;86.99
21240;BME280;10778;48.962;9.018;2023-06-05T03:48:06;99165.78;;;10.56;86.18
21240;BME280;10778;48.962;9.018;2023-06-05T03:50:37;99169.22;;;10.46;86.48
21240;BME280;10778;48.962;9.018;2023-06-05T03:53:04;99170.88;;;10.47;87.05
21240;BME280;10778;48.962;9.018;2023-06-05T03:55:32;99170.19;;;10.45;87.02
21240;BME280;10778;48.962;9.018;2023-06-05T03:58:16;99176.16;;;10.47;86.92
21240;BME280;10778;48.962;9.018;2023-06-05T04:00:47;99179.63;;;10.48;86.69
21240;BME280;10778;48.962;9.018;2023-06-05T04:03:16;99174.63;;;10.45;86.97
21240;BME280;10778;48.962;9.018;2023-06-05T04:05:44;99165.72;;;10.36;87.07
21240;BME280;10778;48.962;9.018;2023-06-05T04:08:11;99170.59;;;10.41;86.72
21240;BME280;10778;48.962;9.018;2023-06-05T04:10:37;99178.09;;;10.45;86.78
21240;BME280;10778;48.962;9.018;2023-06-05T04:13:04;99182.56;;;10.55;86.77
21240;BME280;10778;48.962;9.018;2023-06-05T04:15:32;99179.75;;;10.56;86.28
21240;BME280;10778;48.962;9.018;2023-06-05T04:18:00;99185.47;;;10.61;85.65
21240;BME280;10778;48.962;9.018;2023-06-05T04:20:26;99182.41;;;10.76;85.95
21240;BME280;10778;48.962;9.018;2023-06-05T04:22:54;99186.47;;;11.00;84.82
21240;BME280;10778;48.962;9.018;2023-06-05T04:25:20;99191.03;;;11.07;84.60
21240;BME280;10778;48.962;9.018;2023-06-05T04:27:49;99184.78;;;11.18;84.58
21240;BME280;10778;48.962;9.018;2023-06-05T04:30:16;99189.19;;;11.28;84.07
21240;BME280;10778;48.962;9.018;2023-06-05T04:32:43;99184.47;;;11.41;83.02
21240;BME280;10778;48.962;9.018;2023-06-05T04:35:20;99193.38;;;11.30;83.49
21240;BME280;10778;48.962;9.018;2023-06-05T04:37:46;99195.44;;;11.36;83.52
21240;BME280;10778;48.962;9.018;2023-06-05T04:40:15;99179.44;;;11.58;83.00
21240;BME280;10778;48.962;9.018;2023-06-05T04:42:42;99184.97;;;11.74;81.68
21240;BME280;10778;48.962;9.018;2023-06-05T04:45:08;99179.91;;;11.91;81.41
21240;BME280;10778;48.962;9.018;2023-06-05T04:47:37;99184.44;;;12.08;80.76
21240;BME280;10778;48.962;9.018;2023-06-05T04:50:04;99185.56;;;12.34;79.99
21240;BME280;10778;48.962;9.018;2023-06-05T04:52:31;99177.91;;;12.41;78.82
21240;BME280;10778;48.962;9.018;2023-06-05T04:54:59;99179.44;;;12.61;77.96
21240;BME280;10778;48.962;9.018;2023-06-05T04:57:28;99185.41;;;12.82;77.57
21240;BME280;10778;48.962;9.018;2023-06-05T04:59:54;99175.06;;;13.06;77.14
21240;BME280;10778;48.962;9.018;2023-06-05T05:02:21;99182.66;;;13.28;76.00
21240;BME280;10778;48.962;9.018;2023-06-05T05:04:47;99177.25;;;13.29;76.40
21240;BME280;10778;48.962;9.018;2023-06-05T05:07:13;99178.09;;;13.56;75.27
21240;BME280;10778;48.962;9.018;2023-06-05T05:09:43;99180.16;;;13.71;74.12
21240;BME280;10778;48.962;9.018;2023-06-05T05:12:10;99177.63;;;13.87;72.89
21240;BME280;10778;48.962;9.018;2023-06-05T05:14:36;99169.91;;;14.02;72.47
21240;BME280;10778;48.962;9.018;2023-06-05T05:17:03;99177.50;;;14.32;70.83
21240;BME280;10778;48.962;9.018;2023-06-05T05:19:30;99173.16;;;14.74;70.47
21240;BME280;10778;48.962;9.018;2023-06-05T05:21:58;99176.78;;;14.81;70.63
21240;BME280;10778;48.962;9.018;2023-06-05T05:24:24;99174.31;;;15.13;69.07
21240;BME280;10778;48.962;9.018;2023-06-05T05:26:51;99173.63;;;15.44;67.74
21240;BME280;10778;48.962;9.018;2023-06-05T05:29:17;99176.31;;;15.35;67.95
21240;BME280;10778;48.962;9.018;2023-06-05T05:31:44;99181.91;;;15.57;67.94
21240;BME280;10778;48.962;9.018;2023-06-05T05:34:11;99179.38;;;15.72;67.61
21240;BME280;10778;48.962;9.018;2023-06-05T05:36:37;99175.28;;;16.18;66.18
21240;BME280;10778;48.962;9.018;2023-06-05T05:39:03;99174.59;;;16.24;64.98
21240;BME280;10778;48.962;9.018;2023-06-05T05:41:30;99172.41;;;16.28;65.06
21240;BME280;10778;48.962;9.018;2023-06-05T05:43:56;99169.75;;;16.36;63.10
21240;BME280;10778;48.962;9.018;2023-06-05T05:46:22;99168.03;;;16.43;62.97
21240;BME280;10778;48.962;9.018;2023-06-05T05:48:48;99167.41;;;16.33;62.30
21240;BME280;10778;48.962;9.018;2023-06-05T05:51:14;99161.22;;;16.96;59.34
21240;BME280;10778;48.962;9.018;2023-06-05T05:53:40;99167.03;;;16.99;58.41
21240;BME280;10778;48.962;9.018;2023-06-05T05:56:06;99162.81;;;17.28;57.30
21240;BME280;10778;48.962;9.018;2023-06-05T05:58:32;99168.72;;;17.54;57.94
21240;BME280;10778;48.962;9.018;2023-06-05T06:00:58;99161.56;;;17.69;56.66
21240;BME280;10778;48.962;9.018;2023-06-05T06:03:27;99165.81;;;17.94;56.83
21240;BME280;10778;48.962;9.018;2023-06-05T06:05:54;99165.25;;;18.13;55.95
21240;BME280;10778;48.962;9.018;2023-06-05T06:08:20;99162.34;;;18.45;54.38
21240;BME280;10778;48.962;9.018;2023-06-05T06:10:46;99167.34;;;18.33;54.57
21240;BME280;10778;48.962;9.018;2023-06-05T06:13:13;99170.31;;;18.82;53.81
21240;BME280;10778;48.962;9.018;2023-06-05T06:15:39;99162.44;;;18.95;51.70
21240;BME280;10778;48.962;9.018;2023-06-05T06:18:06;99168.53;;;19.32;50.78
21240;BME280;10778;48.962;9.018;2023-06-05T06:20:32;99161.16;;;19.35;50.13
21240;BME280;10778;48.962;9.018;2023-06-05T06:23:01;99159.06;;;19.30;50.60
21240;BME280;10778;48.962;9.018;2023-06-05T06:25:31;99161.75;;;19.65;51.13
21240;BME280;10778;48.962;9.018;2023-06-05T06:28:00;99155.25;;;20.10;50.02
21240;BME280;10778;48.962;9.018;2023-06-05T06:30:27;99149.97;;;19.81;48.99
21240;BME280;10778;48.962;9.018;2023-06-05T06:32:54;99149.88;;;20.03;48.75
21240;BME280;10778;48.962;9.018;2023-06-05T06:35:26;99148.38;;;20.49;47.87
21240;BME280;10778;48.962;9.018;2023-06-05T06:37:53;99156.94;;;19.82;49.38
21240;BME280;10778;48.962;9.018;2023-06-05T06:40:20;99158.84;;;20.37;47.52
21240;BME280;10778;48.962;9.018;2023-06-05T06:42:46;99168.63;;;20.16;47.79
21240;BME280;10778;48.962;9.018;2023-06-05T06:45:20;99176.28;;;19.91;49.23
21240;BME280;10778;48.962;9.018;2023-06-05T06:47:46;99159.69;;;20.38;47.75
21240;BME280;10778;48.962;9.018;2023-06-05T06:50:13;99167.41;;;20.19;47.93
21240;BME280;10778;48.962;9.018;2023-06-05T06:52:40;99168.84;;;20.22;47.95
21240;BME280;10778;48.962;9.018;2023-06-05T06:55:06;99157.81;;;20.38;48.58
21240;BME280;10778;48.962;9.018;2023-06-05T06:57:33;99160.63;;;20.85;47.29
21240;BME280;10778;48.962;9.018;2023-06-05T06:59:59;99153.22;;;21.08;46.85
21240;BME280;10778;48.962;9.018;2023-06-05T07:02:25;99159.63;;;21.27;46.09
21240;BME280;10778;48.962;9.018;2023-06-05T07:04:51;99153.22;;;21.01;46.50
21240;BME280;10778;48.962;9.018;2023-06-05T07:07:19;99157.31;;;21.44;47.10
21240;BME280;10778;48.962;9.018;2023-06-05T07:09:49;99160.66;;;21.26;46.27
21240;BME280;10778;48.962;9.018;2023-06-05T07:12:17;99156.69;;;21.76;45.57
21240;BME280;10778;48.962;9.018;2023-06-05T07:14:45;99156.84;;;21.94;45.06
21240;BME280;10778;48.962;9.018;2023-06-05T07:17:11;99152.09;;;21.96;45.16
21240;BME280;10778;48.962;9.018;2023-06-05T07:19:37;99157.06;;;21.79;45.94
21240;BME280;10778;48.962;9.018;2023-06-05T07:22:04;99150.44;;;22.02;46.00
21240;BME280;10778;48.962;9.018;2023-06-05T07:24:31;99150.91;;;21.85;45.56
21240;BME280;10778;48.962;9.018;2023-06-05T07:26:59;99155.94;;;22.14;45.89
21240;BME280;10778;48.962;9.018;2023-06-05T07:29:26;99155.22;;;22.32;46.01
21240;BME280;10778;48.962;9.018;2023-06-05T07:31:54;99151.94;;;21.84;46.21
21240;BME280;10778;48.962;9.018;2023-06-05T07:34:22;99157.56;;;22.22;46.82
21240;BME280;10778;48.962;9.018;2023-06-05T07:36:49;99152.84;;;22.10;45.22
21240;BME280;10778;48.962;9.018;2023-06-05T07:39:19;99150.84;;;22.83;45.83
21240;BME280;10778;48.962;9.018;2023-06-05T07:41:45;99140.63;;;23.24;44.45
21240;BME280;10778;48.962;9.018;2023-06-05T07:44:14;99147.69;;;23.19;44.25
21240;BME280;10778;48.962;9.018;2023-06-05T07:46:41;99139.03;;;23.42;43.32
21240;BME280;10778;48.962;9.018;2023-06-05T07:49:08;99141.34;;;23.57;43.76
21240;BME280;10778;48.962;9.018;2023-06-05T07:51:35;99139.22;;;23.15;43.45
21240;BME280;10778;48.962;9.018;2023-06-05T07:54:04;99140.03;;;23.48;44.45
21240;BME280;10778;48.962;9.018;2023-06-05T07:56:31;99139.31;;;23.52;44.44
21240;BME280;10778;48.962;9.018;2023-06-05T07:58:57;99132.50;;;23.56;43.98
21240;BME280;10778;48.962;9.018;2023-06-05T08:01:23;99139.13;;;23.72;44.08
21240;BME280;10778;48.962;9.018;2023-06-05T08:03:49;99141.75;;;23.79;43.62
21240;BME280;10778;48.962;9.018;2023-06-05T08:06:16;99134.78;;;23.90;44.48
21240;BME280;10778;48.962;9.018;2023-06-05T08:08:42;99136.94;;;24.00;44.31
21240;BME280;10778;48.962;9.018;2023-06-05T08:11:09;99136.81;;;23.76;44.65
21240;BME280;10778;48.962;9.018;2023-06-05T08:13:37;99122.19;;;24.40;43.40
21240;BME280;10778;48.962;9.018;2023-06-05T08:16:05;99121.44;;;24.63;43.17
21240;BME280;10778;48.962;9.018;2023-06-05T08:18:31;99125.56;;;24.35;43.11
21240;BME280;10778;48.962;9.018;2023-06-05T08:20:57;99122.47;;;24.81;44.40
21240;BME280;10778;48.962;9.018;2023-06-05T08:23:22;99124.47;;;24.55;43.68
21240;BME280;10778;48.962;9.018;2023-06-05T08:25:48;99123.41;;;24.56;43.84
21240;BME280;10778;48.962;9.018;2023-06-05T08:28:15;99124.00;;;25.12;42.55
21240;BME280;10778;48.962;9.018;2023-06-05T08:30:42;99116.03;;;24.82;43.36
21240;BME280;10778;48.962;9.018;2023-06-05T08:33:08;99117.06;;;24.81;43.87
21240;BME280;10778;48.962;9.018;2023-06-05T08:35:34;99111.59;;;25.11;42.65
21240;BME280;10778;48.962;9.018;2023-06-05T08:38:00;99116.28;;;24.92;43.28
21240;BME280;10778;48.962;9.018;2023-06-05T08:40:28;99108.44;;;25.38;43.30
21240;BME280;10778;48.962;9.018;2023-06-05T08:42:55;99112.22;;;25.49;43.64
21240;BME280;10778;48.962;9.018;2023-06-05T08:45:21;99110.84;;;25.88;41.90
21240;BME280;10778;48.962;9.018;2023-06-05T08:47:51;99113.25;;;25.36;43.95
21240;BME280;10778;48.962;9.018;2023-06-05T08:50:17;99118.00;;;25.82;43.31
21240;BME280;10778;48.962;9.018;2023-06-05T08:52:44;99109.44;;;25.85;43.40
21240;BME280;10778;48.962;9.018;2023-06-05T08:55:12;99100.16;;;25.93;42.74
21240;BME280;10778;48.962;9.018;2023-06-05T08:57:40;99109.84;;;25.65;43.10
21240;BME280;10778;48.962;9.018;2023-06-05T09:00:07;99106.59;;;25.92;44.05
21240;BME280;10778;48.962;9.018;2023-06-05T09:02:40;99116.03;;;26.18;43.39
21240;BME280;10778;48.962;9.018;2023-06-05T09:05:09;99112.81;;;26.33;42.57
21240;BME280;10778;48.962;9.018;2023-06-05T09:07:36;99102.44;;;26.13;42.83
21240;BME280;10778;48.962;9.018;2023-06-05T09:10:05;99102.56;;;25.77;44.28
21240;BME280;10778;48.962;9.018;2023-06-05T09:12:32;99100.69;;;25.42;45.09
21240;BME280;10778;48.962;9.018;2023-06-05T09:14:58;99099.78;;;26.01;43.30
21240;BME280;10778;48.962;9.018;2023-06-05T09:17:24;99097.50;;;26.85;42.48
21240;BME280;10778;48.962;9.018;2023-06-05T09:19:50;99096.94;;;27.00;42.67
21240;BME280;10778;48.962;9.018;2023-06-05T09:22:31;99096.06;;;26.31;42.86
21240;BME280;10778;48.962;9.018;2023-06-05T09:24:59;99103.53;;;25.59;45.63
21240;BME280;10778;48.962;9.018;2023-06-05T09:27:27;99093.56;;;26.59;43.64
21240;BME280;10778;48.962;9.018;2023-06-05T09:30:02;99090.63;;;26.94;42.78
21240;BME280;10778;48.962;9.018;2023-06-05T09:32:29;99088.72;;;27.29;43.23
21240;BME280;10778;48.962;9.018;2023-06-05T09:34:56;99088.25;;;27.15;43.67
21240;BME280;10778;48.962;9.018;2023-06-05T09:37:34;99093.09;;;26.96;42.91
21240;BME280;10778;48.962;9.018;2023-06-05T09:40:03;99086.88;;;27.12;42.46
21240;BME280;10778;48.962;9.018;2023-06-05T09:42:34;99083.66;;;27.16;42.29
21240;BME280;10778;48.962;9.018;2023-06-05T09:45:02;99093.06;;;26.62;43.97
21240;BME280;10778;48.962;9.018;2023-06-05T09:47:28;99082.94;;;27.03;42.92
21240;BME280;10778;48.962;9.018;2023-06-05T09:49:54;99084.88;;;26.74;44.13
21240;BME280;10778;48.962;9.018;2023-06-05T09:52:20;99087.94;;;26.94;43.21
21240;BME280;10778;48.962;9.018;2023-06-05T09:54:46;99084.84;;;27.42;42.84
21240;BME280;10778;48.962;9.018;2023-06-05T09:57:14;99074.84;;;27.43;42.71
21240;BME280;10778;48.962;9.018;2023-06-05T09:59:53;99082.31;;;26.96;42.54
21240;BME280;10778;48.962;9.018;2023-06-05T10:02:21;99063.72;;;27.39;42.15
21240;BME280;10778;48.962;9.018;2023-06-05T10:04:57;99075.84;;;27.14;42.96
21240;BME280;10778;48.962;9.018;2023-06-05T10:07:25;99074.03;;;26.68;43.00
21240;BME280;10778;48.962;9.018;2023-06-05T10:09:53;99066.81;;;26.57;44.19
21240;BME280;10778;48.962;9.018;2023-06-05T10:12:20;99065.94;;;27.03;41.72
21240;BME280;10778;48.962;9.018;2023-06-05T10:14:48;99066.03;;;27.30;42.18
21240;BME280;10778;48.962;9.018;2023-06-05T10:17:14;99069.38;;;27.37;42.24
21240;BME280;10778;48.962;9.018;2023-06-05T10:19:42;99066.50;;;27.89;42.05
21240;BME280;10778;48.962;9.018;2023-06-05T10:22:11;99059.63;;;27.14;40.63
21240;BME280;10778;48.962;9.018;2023-06-05T10:24:43;99065.97;;;27.47;41.67
21240;BME280;10778;48.962;9.018;2023-06-05T10:35:24;99060.13;;;27.33;41.23
21240;BME280;10778;48.962;9.018;2023-06-05T10:40:20;99054.06;;;26.87;41.43
21240;BME280;10778;48.962;9.018;2023-06-05T10:42:46;99052.22;;;27.49;39.42
21240;BME280;10778;48.962;9.018;2023-06-05T10:45:12;99055.38;;;27.40;40.13
21240;BME280;10778;48.962;9.018;2023-06-05T10:52:43;99046.09;;;26.29;38.88
21240;BME280;10778;48.962;9.018;2023-06-05T10:55:10;99044.25;;;26.80;38.16
21240;BME280;10778;48.962;9.018;2023-06-05T10:58:07;99043.28;;;26.87;38.10
21240;BME280;10778;48.962;9.018;2023-06-05T11:00:36;99042.25;;;27.10;37.26
21240;BME280;10778;48.962;9.018;2023-06-05T11:03:04;99032.25;;;27.50;36.69
21240;BME280;10778;48.962;9.018;2023-06-05T11:05:31;99036.47;;;27.40;36.92
21240;BME280;10778;48.962;9.018;2023-06-05T11:08:15;99035.63;;;27.18;36.77
21240;BME280;10778;48.962;9.018;2023-06-05T11:11:04;99036.13;;;27.15;36.97
21240;BME280;10778;48.962;9.018;2023-06-05T11:13:57;99029.41;;;27.84;36.33
21240;BME280;10778;48.962;9.018;2023-06-05T11:16:31;99036.06;;;26.92;36.68
21240;BME280;10778;48.962;9.018;2023-06-05T11:19:36;99030.00;;;27.42;36.94
21240;BME280;10778;48.962;9.018;2023-06-05T11:22:09;99023.06;;;27.06;36.81
21240;BME280;10778;48.962;9.018;2023-06-05T11:24:36;99028.19;;;27.08;36.96
21240;BME280;10778;48.962;9.018;2023-06-05T11:27:04;99022.84;;;27.13;35.26
21240;BME280;10778;48.962;9.018;2023-06-05T11:29:32;99017.28;;;27.87;36.56
21240;BME280;10778;48.962;9.018;2023-06-05T11:31:58;99010.91;;;27.98;36.55
21240;BME280;10778;48.962;9.018;2023-06-05T11:34:24;99004.91;;;28.18;35.17
21240;BME280;10778;48.962;9.018;2023-06-05T11:36:53;99014.31;;;28.16;36.00
21240;BME280;10778;48.962;9.018;2023-06-05T11:39:19;99009.69;;;28.11;35.51
21240;BME280;10778;48.962;9.018;2023-06-05T11:41:49;99006.72;;;28.13;35.25
21240;BME280;10778;48.962;9.018;2023-06-05T11:44:30;98994.91;;;28.19;35.44
21240;BME280;10778;48.962;9.018;2023-06-05T11:46:57;99003.63;;;27.99;35.65
21240;BME280;10778;48.962;9.018;2023-06-05T11:49:24;98995.53;;;27.76;35.46
21240;BME280;10778;48.962;9.018;2023-06-05T11:51:51;98992.44;;;28.17;36.13
21240;BME280;10778;48.962;9.018;2023-06-05T11:54:30;99006.91;;;28.06;35.36
21240;BME280;10778;48.962;9.018;2023-06-05T11:57:01;99000.34;;;27.69;35.67
21240;BME280;10778;48.962;9.018;2023-06-05T11:59:35;99005.16;;;26.66;36.83
21240;BME280;10778;48.962;9.018;2023-06-05T12:02:01;99005.97;;;27.01;36.08
21240;BME280;10778;48.962;9.018;2023-06-05T12:04:30;98995.94;;;27.90;35.41
21240;BME280;10778;48.962;9.018;2023-06-05T12:06:56;98998.34;;;28.14;35.37
21240;BME280;10778;48.962;9.018;2023-06-05T12:09:23;99003.31;;;28.22;34.55
21240;BME280;10778;48.962;9.018;2023-06-05T12:11:49;98996.44;;;28.15;34.46
21240;BME280;10778;48.962;9.018;2023-06-05T12:14:31;98993.56;;;27.66;35.96
21240;BME280;10778;48.962;9.018;2023-06-05T12:16:57;98995.75;;;27.25;36.18
21240;BME280;10778;48.962;9.018;2023-06-05T12:19:23;98998.75;;;27.06;35.37
21240;BME280;10778;48.962;9.018;2023-06-05T12:21:50;98988.91;;;27.62;35.69
21240;BME280;10778;48.962;9.018;2023-06-05T12:24:24;98989.09;;;28.37;34.93
21240;BME280;10778;48.962;9.018;2023-06-05T12:26:54;98986.97;;;28.45;34.95
21240;BME280;10778;48.962;9.018;2023-06-05T12:29:27;98983.50;;;27.62;36.47
21240;BME280;10778;48.962;9.018;2023-06-05T12:31:58;98991.16;;;27.70;35.10
21240;BME280;10778;48.962;9.018;2023-06-05T12:34:47;98989.44;;;27.86;34.75
21240;BME280;10778;48.962;9.018;2023-06-05T12:37:26;98973.72;;;28.43;33.12
21240;BME280;10778;48.962;9.018;2023-06-05T12:39:58;98979.72;;;28.50;33.64
21240;BME280;10778;48.962;9.018;2023-06-05T12:42:27;98972.09;;;28.42;33.77
21240;BME280;10778;48.962;9.018;2023-06-05T12:44:54;98974.22;;;28.78;34.14
21240;BME280;10778;48.962;9.018;2023-06-05T12:47:21;98962.41;;;28.94;33.65
21240;BME280;10778;48.962;9.018;2023-06-05T12:49:47;98959.78;;;29.10;33.13
21240;BME280;10778;48.962;9.018;2023-06-05T12:52:13;98965.22;;;29.15;33.65
21240;BME280;10778;48.962;9.018;2023-06-05T12:54:39;98963.28;;;29.05;33.13
21240;BME280;10778;48.962;9.018;2023-06-05T12:57:05;98954.72;;;29.34;33.07
21240;BME280;10778;48.962;9.018;2023-06-05T12:59:33;98950.28;;;29.07;33.46
21240;BME280;10778;48.962;9.018;2023-06-05T13:01:59;98961.66;;;29.09;33.77
21240;BME280;10778;48.962;9.018;2023-06-05T13:04:25;98951.66;;;29.10;32.64
21240;BME280;10778;48.962;9.018;2023-06-05T13:06:51;98951.47;;;29.37;33.47
21240;BME280;10778;48.962;9.018;2023-06-05T13:09:19;98953.63;;;28.72;34.97
21240;BME280;10778;48.962;9.018;2023-06-05T13:11:45;98942.66;;;28.94;34.25
21240;BME280;10778;48.962;9.018;2023-06-05T13:14:11;98953.38;;;28.78;32.82
21240;BME280;10778;48.962;9.018;2023-06-05T13:16:37;98946.50;;;28.60;33.17
21240;BME280;10778;48.962;9.018;2023-06-05T13:19:03;98949.53;;;28.31;33.97
21240;BME280;10778;48.962;9.018;2023-06-05T13:21:29;98948.97;;;28.67;33.16
21240;BME280;10778;48.962;9.018;2023-06-05T13:23:55;98941.97;;;29.19;32.67
21240;BME280;10778;48.962;9.018;2023-06-05T13:26:21;98939.69;;;28.95;33.09
21240;BME280;10778;48.962;9.018;2023-06-05T13:28:47;98933.28;;;29.22;32.31